createdAt,value
2022-08-03T00:01:27.122Z,1.30
2022-08-03T00:03:58.122Z,1.02
2022-08-03T00:06:36.463Z,1.60
2022-08-03T00:09:08.673Z,1.15
2022-08-03T00:11:39.938Z,1.17
2022-08-03T00:14:11.875Z,0.82
2022-08-03T00:16:42.875Z,1.63
2022-08-03T00:19:13.678Z,1.30
2022-08-03T00:25:34.088Z,0.98
2022-08-03T00:28:12.057Z,1.00
2022-08-03T00:30:42.825Z,1.67
2022-08-03T00:33:15.443Z,1.20
2022-08-03T00:35:50.797Z,1.02
2022-08-03T00:38:21.951Z,1.10
2022-08-03T00:40:56.057Z,1.00
2022-08-03T00:43:30.007Z,1.10
2022-08-03T00:46:00.785Z,1.20
2022-08-03T00:48:33.310Z,1.00
2022-08-03T00:51:05.089Z,1.08
2022-08-03T00:53:35.916Z,1.08
2022-08-03T00:56:09.504Z,1.10
2022-08-03T00:58:40.441Z,0.80
2022-08-03T01:01:12.765Z,0.77
2022-08-03T01:03:44.062Z,0.90
2022-08-03T01:06:20.527Z,1.20
2022-08-03T01:12:58.024Z,0.90
2022-08-03T01:15:37.016Z,1.10
2022-08-03T01:18:14.216Z,1.20
2022-08-03T01:20:50.376Z,1.52
2022-08-03T01:23:37.452Z,1.00
2022-08-03T01:26:29.208Z,0.88
2022-08-03T01:29:25.335Z,0.90
2022-08-03T01:33:02.526Z,1.10
2022-08-03T01:35:02.802Z,1.27
2022-08-03T01:37:40.302Z,1.23
2022-08-03T01:40:13.917Z,1.17
2022-08-03T01:42:46.625Z,1.73
2022-08-03T01:45:20.768Z,1.48
2022-08-03T01:47:56.043Z,1.45
2022-08-03T01:50:32.421Z,1.42
2022-08-03T01:53:03.795Z,1.40
2022-08-03T01:55:35.893Z,1.20
2022-08-03T01:58:08.348Z,1.20
2022-08-03T02:00:40.602Z,1.25
2022-08-03T02:03:16.861Z,1.60
2022-08-03T02:06:01.241Z,1.50
2022-08-03T02:08:42.440Z,1.17
2022-08-03T02:11:14.073Z,1.27
2022-08-03T02:13:46.534Z,1.25
2022-08-03T02:16:17.800Z,1.40
2022-08-03T02:18:51.955Z,1.77
2022-08-03T02:21:57.172Z,1.58
2022-08-03T02:24:14.900Z,1.83
2022-08-03T02:26:46.894Z,1.52
2022-08-03T02:29:39.348Z,1.50
2022-08-03T02:32:17.345Z,1.40
2022-08-03T02:34:54.965Z,1.65
2022-08-03T02:37:30.569Z,2.00
2022-08-03T02:40:05.679Z,1.90
2022-08-03T02:42:38.153Z,3.38
2022-08-03T02:45:14.535Z,2.42
2022-08-03T02:47:53.787Z,2.05
2022-08-03T02:50:30.630Z,2.45
2022-08-03T02:53:02.814Z,2.40
2022-08-03T02:55:35.971Z,2.22
2022-08-03T02:58:16.730Z,2.40
2022-08-03T03:00:49.011Z,2.35
2022-08-03T03:03:19.885Z,2.70
2022-08-03T03:05:57.505Z,2.20
2022-08-03T03:08:30.195Z,2.13
2022-08-03T03:11:03.960Z,2.75
2022-08-03T03:13:35.549Z,3.00
2022-08-03T03:16:07.906Z,3.00
2022-08-03T03:18:40.022Z,3.10
2022-08-03T03:21:13.898Z,2.40
2022-08-03T03:23:45.354Z,3.28
2022-08-03T03:26:17.671Z,2.72
2022-08-03T03:28:48.784Z,3.15
2022-08-03T03:31:19.715Z,2.83
2022-08-03T03:33:50.730Z,2.88
2022-08-03T03:36:24.222Z,2.70
2022-08-03T03:38:55.292Z,3.20
2022-08-03T03:41:26.293Z,3.58
2022-08-03T03:43:57.639Z,3.15
2022-08-03T03:46:28.892Z,3.15
2022-08-03T03:48:59.732Z,3.90
2022-08-03T03:51:33.205Z,3.65
2022-08-03T03:54:06.052Z,3.83
2022-08-03T03:56:36.885Z,3.40
2022-08-03T03:59:07.746Z,3.20
2022-08-03T04:01:38.711Z,3.42
2022-08-03T04:04:21.682Z,3.83
2022-08-03T04:07:07.320Z,2.97
2022-08-03T04:09:51.790Z,3.10
2022-08-03T04:12:25.872Z,3.40
2022-08-03T04:14:59.988Z,4.13
2022-08-03T04:17:32.072Z,3.50
2022-08-03T04:20:05.785Z,3.30
2022-08-03T04:22:40.632Z,3.83
2022-08-03T04:25:19.527Z,3.33
2022-08-03T04:28:07.761Z,3.20
2022-08-03T04:30:51.115Z,3.50
2022-08-03T04:33:25.204Z,3.83
2022-08-03T04:36:03.712Z,3.85
2022-08-03T04:38:42.100Z,4.03
2022-08-03T04:41:13.759Z,3.55
2022-08-03T04:43:44.762Z,4.15
2022-08-03T04:46:16.662Z,4.80
2022-08-03T04:48:47.572Z,4.82
2022-08-03T04:51:18.800Z,4.35
2022-08-03T04:53:52.493Z,3.90
2022-08-03T04:56:23.944Z,4.35
2022-08-03T04:58:54.677Z,4.25
2022-08-03T05:01:25.836Z,4.40
2022-08-03T05:03:56.757Z,4.28
2022-08-03T05:06:27.506Z,4.25
2022-08-03T05:09:00.889Z,4.35
2022-08-03T05:11:32.842Z,4.60
2022-08-03T05:14:03.634Z,4.28
2022-08-03T05:16:34.441Z,4.40
2022-08-03T05:19:05.168Z,4.07
2022-08-03T05:21:41.754Z,4.20
2022-08-03T05:24:26.412Z,4.50
2022-08-03T05:26:57.145Z,4.40
2022-08-03T05:29:27.895Z,4.30
2022-08-03T05:31:59.255Z,4.25
2022-08-03T05:34:30.466Z,4.55
2022-08-03T05:37:01.470Z,4.55
2022-08-03T05:39:34.804Z,4.32
2022-08-03T05:42:06.037Z,4.20
2022-08-03T05:44:38.922Z,5.07
2022-08-03T05:47:10.016Z,5.00
2022-08-03T05:49:40.805Z,4.53
2022-08-03T05:52:14.670Z,4.85
2022-08-03T05:54:57.011Z,4.47
2022-08-03T05:57:28.754Z,4.20
2022-08-03T05:59:59.516Z,4.82
2022-08-03T06:02:30.765Z,5.30
2022-08-03T06:05:01.540Z,5.00
2022-08-03T06:07:32.410Z,4.75
2022-08-03T06:10:35.998Z,4.82
2022-08-03T06:12:57.691Z,4.60
2022-08-03T06:15:28.460Z,4.75
2022-08-03T06:18:02.011Z,5.50
2022-08-03T06:20:33.392Z,4.90
2022-08-03T06:23:04.235Z,5.20
2022-08-03T06:25:37.564Z,4.50
2022-08-03T06:28:14.970Z,5.38
2022-08-03T06:30:55.291Z,4.57
2022-08-03T06:34:30.602Z,5.10
2022-08-03T06:36:17.503Z,5.18
2022-08-03T06:38:48.227Z,5.20
2022-08-03T06:41:21.733Z,4.63
2022-08-03T06:44:03.507Z,4.85
2022-08-03T06:46:35.516Z,5.10
2022-08-03T06:49:06.472Z,4.75
2022-08-03T06:52:06.174Z,4.78
2022-08-03T06:54:27.943Z,4.38
2022-08-03T06:57:01.396Z,4.63
2022-08-03T07:00:07.549Z,4.18
2022-08-03T07:02:23.132Z,5.65
2022-08-03T07:04:54.425Z,5.00
2022-08-03T07:07:25.253Z,5.20
2022-08-03T07:09:57.878Z,5.03
2022-08-03T07:12:34.760Z,5.10
2022-08-03T07:15:06.062Z,4.78
2022-08-03T07:17:38.955Z,4.97
2022-08-03T07:20:11.343Z,3.58
2022-08-03T07:22:42.089Z,4.63
2022-08-03T07:25:13.463Z,4.47
2022-08-03T07:27:51.854Z,3.70
2022-08-03T07:30:22.773Z,4.10
2022-08-03T07:32:53.651Z,3.28
2022-08-03T07:35:25.445Z,2.25
2022-08-03T07:37:57.261Z,3.05
2022-08-03T07:40:31.643Z,3.50
2022-08-03T07:43:05.772Z,3.40
2022-08-03T07:45:36.769Z,3.92
2022-08-03T07:48:12.135Z,3.05
2022-08-03T07:50:43.833Z,2.17
2022-08-03T07:53:14.576Z,3.13
2022-08-03T07:55:45.711Z,2.72
2022-08-03T07:58:24.018Z,3.08
2022-08-03T08:00:56.138Z,2.85
2022-08-03T08:03:27.240Z,2.85
2022-08-03T08:05:58.131Z,2.50
2022-08-03T08:08:28.932Z,2.40
2022-08-03T08:10:59.689Z,2.03
2022-08-03T08:13:33.100Z,1.35
2022-08-03T08:16:03.975Z,1.90
2022-08-03T08:18:34.953Z,2.28
2022-08-03T08:21:05.695Z,2.05
2022-08-03T08:23:41.999Z,2.33
2022-08-03T08:26:15.384Z,1.75
2022-08-03T08:28:48.824Z,1.60
2022-08-03T08:31:19.596Z,1.95
2022-08-03T08:34:05.923Z,1.80
2022-08-03T08:36:37.251Z,2.00
2022-08-03T08:39:08.329Z,1.70
2022-08-03T08:41:39.368Z,1.77
2022-08-03T08:44:19.765Z,1.15
2022-08-03T08:46:51.779Z,1.70
2022-08-03T08:49:28.050Z,1.60
2022-08-03T08:52:01.639Z,1.23
2022-08-03T09:17:17.531Z,1.25
2022-08-03T09:20:08.716Z,1.73
2022-08-03T09:22:54.401Z,1.13
2022-08-03T09:25:32.011Z,1.50
2022-08-03T09:28:12.078Z,1.38
2022-08-03T09:30:44.890Z,1.48
2022-08-03T09:33:18.940Z,1.55
2022-08-03T09:35:54.111Z,1.40
2022-08-03T09:38:27.718Z,1.40
2022-08-03T09:41:00.789Z,1.10
2022-08-03T09:43:32.011Z,1.00
2022-08-03T09:46:09.953Z,1.27
2022-08-03T09:48:43.268Z,1.25
2022-08-03T09:51:33.139Z,1.15
2022-08-03T09:54:15.034Z,1.35
2022-08-03T09:56:49.714Z,1.10
2022-08-03T09:59:28.259Z,1.35
2022-08-03T10:02:00.713Z,1.35
2022-08-03T10:04:34.412Z,1.10
2022-08-03T10:07:07.490Z,1.35
2022-08-03T10:09:38.753Z,1.10
2022-08-03T10:12:14.272Z,1.52
2022-08-03T10:14:45.883Z,1.10
2022-08-03T10:17:16.985Z,1.38
2022-08-03T10:19:50.865Z,1.45
2022-08-03T10:22:25.631Z,1.10
2022-08-03T10:25:02.514Z,1.05
2022-08-03T10:27:37.537Z,1.08
2022-08-03T10:30:11.377Z,1.10
2022-08-03T10:32:46.538Z,1.30
2022-08-03T10:35:23.653Z,1.10
2022-08-03T10:37:59.478Z,1.20
2022-08-03T10:43:24.948Z,0.82
2022-08-03T10:45:56.297Z,0.95
2022-08-03T10:48:28.370Z,1.00
2022-08-03T10:51:02.150Z,1.17
2022-08-03T10:53:40.689Z,1.30
2022-08-03T10:56:54.691Z,1.00
2022-08-03T11:00:05.187Z,1.20
2022-08-03T11:03:06.864Z,0.98
2022-08-03T11:05:39.686Z,1.10
2022-08-03T11:08:32.736Z,0.95
2022-08-03T11:11:05.516Z,1.50
2022-08-03T11:13:36.536Z,1.10
2022-08-03T11:16:23.738Z,1.00
2022-08-03T11:21:59.922Z,0.90
2022-08-03T11:25:04.723Z,1.50
2022-08-03T11:27:36.601Z,1.40
2022-08-03T11:30:10.501Z,0.90
2022-08-03T11:33:02.780Z,1.10
2022-08-03T11:35:35.711Z,1.20
2022-08-03T11:38:11.613Z,0.90
2022-08-03T11:40:47.580Z,1.13
2022-08-03T11:43:48.740Z,1.00
2022-08-03T11:46:29.665Z,1.20
2022-08-03T11:49:10.762Z,1.38
2022-08-03T11:51:43.125Z,1.00
2022-08-03T11:54:14.196Z,1.00
2022-08-03T11:56:52.196Z,1.00
2022-08-03T11:59:35.344Z,1.00
2022-08-03T12:02:10.477Z,1.10
2022-08-03T12:04:53.497Z,1.27
2022-08-03T12:08:02.350Z,1.67
2022-08-03T12:10:17.580Z,1.20
2022-08-03T12:12:59.391Z,1.10
2022-08-03T12:15:31.763Z,1.02
2022-08-03T12:18:02.976Z,0.90
2022-08-03T12:20:36.044Z,0.98
2022-08-03T12:23:08.256Z,1.10
2022-08-03T12:25:40.369Z,0.80
2022-08-03T12:28:37.082Z,0.93
2022-08-03T12:31:10.457Z,0.85
2022-08-03T12:34:00.122Z,1.10
2022-08-03T12:36:32.754Z,0.90
2022-08-03T12:39:06.950Z,1.00
2022-08-03T12:41:38.760Z,1.00
2022-08-03T12:44:13.334Z,1.00
2022-08-03T12:46:47.939Z,1.10
2022-08-03T12:49:19.871Z,1.10
2022-08-03T12:52:06.918Z,1.27
2022-08-03T12:54:38.265Z,0.75
2022-08-03T12:57:10.549Z,1.33
2022-08-03T12:59:52.588Z,0.80
2022-08-03T13:02:26.411Z,0.80
2022-08-03T13:04:58.120Z,1.20
2022-08-03T13:07:28.874Z,0.95
2022-08-03T13:10:03.719Z,1.15
2022-08-03T13:12:37.070Z,0.90
2022-08-03T13:15:11.178Z,0.98
2022-08-03T13:17:41.901Z,0.90
2022-08-03T13:20:13.265Z,0.88
2022-08-03T13:22:43.964Z,1.05
2022-08-03T13:25:14.705Z,1.33
2022-08-03T13:28:04.119Z,0.90
2022-08-03T13:30:39.257Z,1.30
2022-08-03T13:33:11.556Z,1.15
2022-08-03T13:35:42.341Z,1.23
2022-08-03T13:38:13.107Z,1.15
2022-08-03T13:40:46.220Z,0.90
2022-08-03T13:43:20.485Z,1.10
2022-08-03T13:45:57.628Z,1.23
2022-08-03T13:48:36.979Z,1.30
2022-08-03T13:51:22.165Z,1.30
2022-08-03T13:53:54.167Z,1.42
2022-08-03T13:56:24.934Z,1.27
2022-08-03T13:58:55.705Z,1.85
2022-08-03T14:01:54.283Z,1.40
2022-08-03T14:04:22.119Z,1.52
2022-08-03T14:06:53.511Z,1.63
2022-08-03T14:09:24.253Z,1.20
2022-08-03T14:12:06.978Z,1.20
2022-08-03T14:14:39.085Z,1.40
2022-08-03T14:17:12.447Z,1.73
2022-08-03T14:19:53.663Z,1.65
2022-08-03T14:22:25.152Z,1.40
2022-08-03T14:24:55.871Z,1.60
2022-08-03T14:27:26.787Z,1.55
2022-08-03T14:30:00.016Z,1.45
2022-08-03T14:32:33.894Z,1.60
2022-08-03T14:35:04.624Z,1.38
2022-08-03T14:37:35.443Z,1.95
2022-08-03T14:40:06.873Z,1.38
2022-08-03T14:42:37.842Z,1.45
2022-08-03T14:45:19.846Z,1.35
2022-08-03T14:50:26.579Z,1.80
2022-08-03T14:50:50.722Z,1.77
2022-08-03T14:53:22.820Z,1.48
2022-08-03T14:55:53.830Z,1.50
2022-08-03T14:58:25.613Z,1.45
2022-08-03T15:00:57.597Z,1.42
2022-08-03T15:03:30.958Z,2.13
2022-08-03T15:06:01.741Z,1.45
2022-08-03T15:08:32.746Z,1.30
2022-08-03T15:11:03.485Z,1.60
2022-08-03T15:13:35.927Z,1.52
2022-08-03T15:16:08.947Z,1.25
2022-08-03T15:18:42.559Z,1.27
2022-08-03T15:21:16.588Z,1.17
2022-08-03T15:24:04.261Z,1.13
2022-08-03T15:26:39.349Z,1.30
2022-08-03T15:30:07.777Z,1.50
2022-08-03T15:32:08.820Z,1.23
2022-08-03T15:34:50.293Z,1.15
2022-08-03T15:37:22.435Z,1.50
2022-08-03T15:39:59.713Z,1.30
2022-08-03T15:42:32.620Z,1.08
2022-08-03T15:45:03.790Z,1.10
2022-08-03T15:47:34.536Z,1.10
2022-08-03T15:50:09.896Z,1.40
2022-08-03T15:52:41.688Z,1.15
2022-08-03T15:55:15.781Z,1.15
2022-08-03T15:59:09.396Z,1.23
2022-08-03T16:00:39.191Z,1.20
2022-08-03T16:03:10.319Z,1.02
2022-08-03T16:05:43.826Z,1.73
2022-08-03T16:08:14.816Z,1.10
2022-08-03T16:10:46.967Z,1.00
2022-08-03T16:13:19.358Z,0.80
2022-08-03T16:15:51.258Z,1.27
2022-08-03T16:18:23.015Z,1.23
2022-08-03T16:20:56.355Z,1.25
2022-08-03T16:23:30.469Z,0.95
2022-08-03T16:26:08.897Z,1.30
2022-08-03T16:28:40.389Z,1.10
2022-08-03T16:31:11.626Z,0.98
2022-08-03T16:33:42.466Z,1.48
2022-08-03T16:36:15.836Z,1.20
2022-08-03T16:38:46.618Z,1.10
2022-08-03T16:41:17.437Z,1.33
2022-08-03T16:43:48.210Z,1.00
2022-08-03T16:46:18.991Z,0.90
2022-08-03T16:48:49.754Z,1.10
2022-08-03T16:51:23.241Z,1.02
2022-08-03T16:54:05.366Z,0.68
2022-08-03T16:56:39.211Z,0.88
2022-08-03T16:59:12.093Z,0.90
2022-08-03T17:01:43.796Z,0.90
2022-08-03T17:04:18.786Z,1.20
2022-08-03T17:06:52.385Z,1.00
2022-08-03T17:09:23.381Z,0.80
2022-08-03T17:11:54.448Z,0.90
2022-08-03T17:14:28.234Z,0.80
2022-08-03T17:17:03.031Z,1.08
2022-08-03T17:19:37.947Z,0.95
2022-08-03T17:22:15.795Z,0.75
2022-08-03T17:24:49.674Z,0.80
2022-08-03T17:28:50.297Z,0.73
2022-08-03T17:30:18.946Z,0.90
2022-08-03T17:32:56.947Z,0.70
2022-08-03T17:35:38.619Z,0.60
2022-08-03T17:38:15.753Z,0.70
2022-08-03T17:40:50.136Z,0.65
2022-08-03T17:44:14.012Z,0.60
2022-08-03T17:46:13.697Z,0.60
2022-08-03T17:48:44.903Z,0.90
2022-08-03T17:51:21.130Z,1.00
2022-08-03T17:54:18.573Z,0.60
2022-08-03T17:56:56.470Z,1.10
2022-08-03T17:59:51.058Z,0.65
2022-08-03T18:02:48.799Z,0.57
2022-08-03T18:05:23.107Z,0.60
2022-08-03T18:08:16.040Z,0.73
2022-08-03T18:10:51.268Z,0.60
2022-08-03T18:13:26.559Z,0.45
2022-08-03T18:16:04.531Z,0.70
2022-08-03T18:18:39.245Z,0.70
2022-08-03T18:21:17.193Z,0.60
2022-08-03T18:23:50.174Z,0.93
2022-08-03T18:26:26.001Z,0.77
2022-08-03T18:28:58.841Z,1.90
2022-08-03T18:32:00.549Z,0.85
2022-08-03T18:34:33.002Z,0.98
2022-08-03T18:37:07.279Z,1.13
2022-08-03T18:39:49.851Z,0.90
2022-08-03T18:42:36.212Z,0.65
2022-08-03T18:45:54.951Z,0.93
2022-08-03T18:48:06.843Z,0.68
2022-08-03T18:50:48.150Z,0.70
2022-08-03T18:54:02.382Z,0.63
2022-08-03T18:56:26.753Z,1.20
2022-08-03T18:59:03.698Z,0.70
2022-08-03T19:02:00.852Z,0.60
2022-08-03T19:07:08.129Z,0.75
2022-08-03T19:09:49.957Z,0.60
2022-08-03T19:12:32.528Z,0.80
2022-08-03T19:15:10.538Z,0.77
2022-08-03T19:17:52.677Z,1.00
2022-08-03T19:20:25.970Z,0.90
2022-08-03T19:22:58.732Z,0.80
2022-08-03T19:25:34.494Z,0.82
2022-08-03T19:30:46.252Z,0.70
2022-08-03T19:33:30.081Z,0.60
2022-08-03T19:36:00.992Z,0.82
2022-08-03T19:38:31.949Z,0.88
2022-08-03T19:41:05.962Z,0.73
2022-08-03T19:43:53.329Z,1.10
2022-08-03T19:49:10.590Z,1.08
2022-08-03T19:52:02.538Z,1.02
2022-08-03T19:54:53.010Z,0.95
2022-08-03T19:57:27.695Z,1.20
2022-08-03T20:00:03.919Z,1.08
2022-08-03T20:02:37.858Z,0.80
2022-08-03T20:05:14.999Z,1.20
2022-08-03T20:07:48.528Z,1.13
2022-08-03T20:10:20.582Z,0.90
2022-08-03T20:12:51.808Z,1.00
2022-08-03T20:15:31.618Z,1.02
2022-08-03T20:18:05.426Z,1.80
2022-08-03T20:20:45.862Z,1.40
2022-08-03T20:23:21.296Z,1.13
2022-08-03T20:25:58.231Z,1.27
2022-08-03T20:28:34.205Z,1.30
2022-08-03T20:31:05.003Z,1.75
2022-08-03T20:33:46.358Z,1.20
2022-08-03T20:36:20.021Z,1.33
2022-08-03T20:38:52.056Z,1.40
2022-08-03T20:41:24.216Z,1.63
2022-08-03T20:43:54.962Z,1.52
2022-08-03T20:46:33.760Z,1.10
2022-08-03T20:49:12.104Z,1.42
2022-08-03T20:51:50.603Z,1.30
2022-08-03T20:54:31.142Z,1.10
2022-08-03T20:57:06.938Z,1.55
2022-08-03T20:59:50.757Z,1.35
2022-08-03T21:02:29.782Z,1.10
2022-08-03T21:05:08.675Z,1.30
2022-08-03T21:08:05.436Z,1.27
2022-08-03T21:10:38.111Z,1.65
2022-08-03T21:13:35.118Z,1.65
2022-08-03T21:16:14.271Z,1.70
2022-08-03T21:18:48.809Z,1.35
2022-08-03T21:21:24.384Z,1.63
2022-08-03T21:23:56.933Z,1.63
2022-08-03T21:26:29.516Z,1.33
2022-08-03T21:29:00.916Z,1.65
2022-08-03T21:31:31.598Z,1.85
2022-08-03T21:34:05.412Z,1.15
2022-08-03T21:36:40.755Z,1.60
2022-08-03T21:39:13.991Z,1.95
2022-08-03T21:41:44.835Z,1.80
2022-08-03T21:44:15.866Z,1.50
2022-08-03T21:46:48.544Z,1.52
2022-08-03T21:49:52.043Z,1.38
2022-08-03T21:52:14.261Z,1.45
2022-08-03T21:54:47.067Z,1.58
2022-08-03T21:57:22.438Z,1.45
2022-08-03T21:59:57.262Z,1.83
2022-08-03T22:02:31.342Z,1.52
2022-08-03T22:05:04.978Z,1.50
2022-08-03T22:07:39.819Z,1.60
2022-08-03T22:10:11.290Z,1.73
2022-08-03T22:12:42.814Z,2.00
2022-08-03T22:15:15.628Z,1.33
2022-08-03T22:17:53.848Z,1.45
2022-08-03T22:20:27.249Z,1.50
2022-08-03T22:23:04.893Z,1.25
2022-08-03T22:25:37.612Z,1.40
2022-08-03T22:28:10.946Z,1.55
2022-08-03T22:30:43.354Z,1.70
2022-08-03T22:33:15.150Z,1.40
2022-08-03T22:35:48.505Z,1.42
2022-08-03T22:38:22.300Z,1.45
2022-08-03T22:40:53.882Z,1.40
2022-08-03T22:43:26.684Z,2.20
2022-08-03T22:46:10.107Z,2.30
2022-08-03T22:48:43.619Z,1.23
2022-08-03T22:51:14.549Z,1.33
2022-08-03T22:53:49.029Z,1.02
2022-08-03T22:56:19.892Z,1.20
2022-08-03T22:58:50.658Z,1.35
2022-08-03T23:01:26.453Z,1.15
2022-08-03T23:04:03.447Z,1.17
2022-08-03T23:06:38.029Z,1.08
2022-08-03T23:09:14.524Z,1.00
2022-08-03T23:11:47.008Z,1.10
2022-08-03T23:14:19.219Z,1.00
2022-08-03T23:16:51.126Z,1.02
2022-08-03T23:19:25.953Z,1.48
2022-08-03T23:22:03.599Z,0.88
2022-08-03T23:24:40.347Z,1.20
2022-08-03T23:27:12.271Z,1.00
2022-08-03T23:29:46.016Z,1.20
2022-08-03T23:32:17.409Z,1.15
2022-08-03T23:35:02.982Z,0.90
2022-08-03T23:38:04.219Z,1.00
2022-08-03T23:40:31.926Z,1.10
2022-08-03T23:43:04.253Z,0.93
2022-08-03T23:45:38.041Z,0.80
2022-08-03T23:48:09.486Z,1.17
2022-08-03T23:50:46.717Z,0.93
2022-08-03T23:53:24.804Z,0.60
2022-08-03T23:56:13.385Z,0.80
2022-08-03T23:58:54.832Z,0.70
